Time;durP1;ratioP1;P1;durP2;ratioP2;P2;SDS_P1;SDS_P2;PMS_P1;PMS_P2;Temp;Humidity;BMP_temperature;BMP_pressure;BME280_temperature;BME280_humidity;BME280_pressure;Samples;Min_cycle;Max_cycle;Signal;HPM_P1;HPM_P2
2023/05/16 00:01:45;;;;;;;;;5.00;5.00;;;;;9.32;98.60;101161.66;5035467;28;45255;-65
2023/05/16 00:04:11;;;;;;;;;7.50;7.50;;;;;9.30;99.18;101166.09;5038279;28;45300;-65
2023/05/16 00:06:36;;;;;;;;;6.75;6.75;;;;;9.24;99.27;101156.63;5037688;28;45217;-63
2023/05/16 00:09:01;;;;;;;;;5.00;5.00;;;;;9.20;99.32;101154.97;5037761;28;45236;-63
2023/05/16 00:11:27;;;;;;;;;6.00;5.75;;;;;9.18;99.22;101165.50;5037959;28;45197;-62
2023/05/16 00:13:53;;;;;;;;;7.00;5.75;;;;;9.15;99.63;101162.94;5038286;28;45565;-63
2023/05/16 00:16:20;;;;;;;;;7.00;7.00;;;;;9.14;99.60;101163.00;5036083;28;47803;-66
2023/05/16 00:18:46;;;;;;;;;5.75;5.75;;;;;9.11;99.84;101163.94;5037491;28;45284;-69
2023/05/16 00:21:11;;;;;;;;;6.00;6.00;;;;;9.08;99.57;101163.16;5037703;28;45280;-69
2023/05/16 00:23:37;;;;;;;;;3.75;3.50;;;;;9.06;99.62;101157.94;5036145;28;45408;-68
2023/05/16 00:26:02;;;;;;;;;6.50;6.50;;;;;9.00;99.78;101156.31;5037664;28;45499;-72
2023/05/16 00:28:28;;;;;;;;;5.25;5.25;;;;;8.96;99.91;101162.53;5037631;28;45383;-67
2023/05/16 00:30:53;;;;;;;;;6.25;6.25;;;;;8.99;99.79;101157.19;5038250;28;45401;-67
2023/05/16 00:33:18;;;;;;;;;7.00;7.00;;;;;8.95;99.50;101158.19;5038098;28;45689;-70
2023/05/16 00:35:44;;;;;;;;;6.00;6.00;;;;;8.92;100.00;101155.63;5037350;28;46210;-70
2023/05/16 00:38:09;;;;;;;;;7.75;7.25;;;;;8.92;99.76;101155.63;5037296;28;45403;-70
2023/05/16 00:40:34;;;;;;;;;5.50;5.50;;;;;8.88;99.67;101157.47;5037729;28;45325;-72
2023/05/16 00:43:00;;;;;;;;;5.25;5.25;;;;;8.88;99.67;101159.22;5037429;28;45518;-70
2023/05/16 00:45:25;;;;;;;;;4.00;4.00;;;;;8.87;99.80;101166.25;5037531;28;46525;-71
2023/05/16 00:47:50;;;;;;;;;4.00;4.00;;;;;8.86;100.00;101164.53;5037227;28;45354;-62
2023/05/16 00:50:17;;;;;;;;;4.25;4.25;;;;;8.81;99.97;101155.03;5037458;28;45424;-65
2023/05/16 00:52:42;;;;;;;;;5.00;5.00;;;;;8.80;100.00;101164.66;5037536;28;45243;-61
2023/05/16 00:55:11;;;;;;;;;5.75;5.75;;;;;8.76;100.00;101158.63;5035696;28;47302;-64
2023/05/16 00:57:40;;;;;;;;;4.75;4.75;;;;;8.79;100.00;101168.19;5037156;28;45292;-62
2023/05/16 01:00:09;;;;;;;;;5.25;4.50;;;;;8.84;100.00;101168.06;5036864;28;45327;-65
2023/05/16 01:02:35;;;;;;;;;6.50;6.50;;;;;8.84;100.00;101163.69;5037281;28;45540;-70
2023/05/16 01:05:04;;;;;;;;;6.00;5.25;;;;;8.80;99.97;101163.78;5036858;28;46273;-64
2023/05/16 01:07:29;;;;;;;;;4.75;4.75;;;;;8.77;100.00;101168.22;5036954;28;45208;-71
2023/05/16 01:09:55;;;;;;;;;6.50;6.50;;;;;8.74;100.00;101164.81;5035836;28;45445;-70
2023/05/16 01:12:39;;;;;;;;;5.25;5.25;;;;;8.79;99.88;101173.44;5035172;28;45511;-66
2023/05/16 01:15:36;;;;;;;;;4.75;4.75;;;;;8.76;100.00;101168.25;5036643;28;45282;-64
2023/05/16 01:18:14;;;;;;;;;6.00;5.00;;;;;8.65;99.66;101162.41;5035210;28;45371;-65
2023/05/16 01:20:51;;;;;;;;;4.25;4.25;;;;;8.62;100.00;101169.44;5036947;28;45430;-68
2023/05/16 01:23:57;;;;;;;;;6.00;6.00;;;;;8.59;100.00;101166.00;5036971;28;45384;-70
2023/05/16 01:26:27;;;;;;;;;4.50;4.50;;;;;8.52;100.00;101159.19;5036620;28;45454;-64
2023/05/16 01:28:53;;;;;;;;;3.25;3.25;;;;;8.50;100.00;101163.59;5036478;28;45341;-63
2023/05/16 01:31:22;;;;;;;;;4.50;4.50;;;;;8.39;100.00;101148.94;5036412;28;45248;-65
2023/05/16 01:33:48;;;;;;;;;5.50;5.50;;;;;8.48;100.00;101167.09;5036367;28;45628;-68
2023/05/16 01:36:28;;;;;;;;;4.00;4.00;;;;;8.50;100.00;101172.34;5036095;28;45280;-63
2023/05/16 01:39:31;;;;;;;;;5.75;5.75;;;;;8.47;100.00;101172.34;5036171;28;45322;-70
2023/05/16 01:42:02;;;;;;;;;4.50;4.50;;;;;8.44;100.00;101173.28;5034910;28;45241;-68
2023/05/16 01:44:36;;;;;;;;;6.50;5.50;;;;;8.41;100.00;101180.34;5036678;28;45373;-65
2023/05/16 01:47:12;;;;;;;;;6.00;5.25;;;;;8.33;100.00;101183.16;5036272;28;45505;-65
2023/05/16 01:49:59;;;;;;;;;1.00;1.00;;;;;8.25;100.00;101175.44;5036052;28;45454;-69
2023/05/16 01:52:34;;;;;;;;;5.00;5.00;;;;;8.25;100.00;101180.69;5036251;28;45297;-62
2023/05/16 01:55:02;;;;;;;;;3.00;3.00;;;;;8.19;100.00;101176.44;5036848;28;45230;-63
2023/05/16 01:57:28;;;;;;;;;4.50;4.50;;;;;8.15;100.00;101176.53;5036186;28;46715;-61
2023/05/16 01:59:54;;;;;;;;;4.00;4.00;;;;;8.13;100.00;101173.94;5035977;28;45351;-65
2023/05/16 02:02:19;;;;;;;;;6.75;5.75;;;;;8.16;100.00;101188.72;5034594;28;45468;-65
2023/05/16 02:04:45;;;;;;;;;5.00;5.00;;;;;8.14;100.00;101191.41;5036277;28;45359;-73
2023/05/16 02:07:13;;;;;;;;;5.25;5.25;;;;;8.16;100.00;101183.50;5035853;28;45544;-75
2023/05/16 02:09:38;;;;;;;;;6.00;6.00;;;;;8.09;100.00;101180.16;5034576;28;45467;-74
2023/05/16 02:12:04;;;;;;;;;3.00;3.00;;;;;8.12;100.00;101182.72;5035275;28;50524;-62
2023/05/16 02:14:29;;;;;;;;;4.00;4.00;;;;;8.10;100.00;101174.00;5036607;28;45434;-73
2023/05/16 02:16:55;;;;;;;;;4.50;4.50;;;;;8.16;100.00;101184.38;5036122;28;45387;-72
2023/05/16 02:19:20;;;;;;;;;5.00;5.00;;;;;8.16;100.00;101173.00;5035536;28;54242;-75
2023/05/16 02:21:45;;;;;;;;;5.00;5.00;;;;;8.09;100.00;101168.78;5035235;28;55200;-71
2023/05/16 02:24:11;;;;;;;;;2.75;2.75;;;;;8.10;100.00;101183.63;5033613;28;45547;-70
2023/05/16 02:26:36;;;;;;;;;5.00;5.00;;;;;8.09;100.00;101182.75;5034134;28;46815;-72
2023/05/16 02:29:02;;;;;;;;;6.00;6.00;;;;;8.09;100.00;101187.13;5036061;28;45218;-71
2023/05/16 02:31:33;;;;;;;;;8.00;8.00;;;;;8.03;100.00;101177.66;5035874;28;45319;-73
2023/05/16 02:33:59;;;;;;;;;3.00;3.00;;;;;8.02;100.00;101189.88;5035928;28;45559;-62
2023/05/16 02:36:24;;;;;;;;;5.00;5.00;;;;;7.91;100.00;101176.13;5033569;28;47997;-70
2023/05/16 02:38:50;;;;;;;;;6.00;6.00;;;;;7.94;100.00;101181.31;5035160;28;45414;-62
2023/05/16 02:41:15;;;;;;;;;6.00;6.00;;;;;8.00;100.00;101189.03;5035531;28;45209;-62
2023/05/16 02:43:42;;;;;;;;;5.25;5.25;;;;;7.92;100.00;101185.72;5035921;28;45290;-74
2023/05/16 02:46:43;;;;;;;;;7.00;6.25;;;;;7.92;100.00;101190.94;5035394;28;45598;-68
2023/05/16 02:49:08;;;;;;;;;5.75;5.75;;;;;7.94;100.00;101191.78;4973768;28;45313;-72
2023/05/16 02:51:34;;;;;;;;;6.50;5.00;;;;;7.95;100.00;101197.88;5021774;28;53150;-70
2023/05/16 02:54:00;;;;;;;;;9.25;6.00;;;;;7.94;100.00;101190.91;5035520;28;45424;-70
2023/05/16 02:56:25;;;;;;;;;4.25;4.25;;;;;7.99;100.00;101187.31;5035098;28;46068;-73
2023/05/16 02:58:53;;;;;;;;;5.50;5.50;;;;;7.95;100.00;101190.00;5034927;28;45170;-69
2023/05/16 03:01:18;;;;;;;;;4.75;4.50;;;;;7.97;100.00;101188.25;5035487;28;45196;-71
2023/05/16 03:03:44;;;;;;;;;3.50;3.50;;;;;7.90;100.00;101190.97;5035276;28;45587;-72
2023/05/16 03:06:09;;;;;;;;;4.00;4.00;;;;;7.92;100.00;101184.84;5034645;28;46867;-64
2023/05/16 03:08:35;;;;;;;;;4.25;4.25;;;;;7.91;100.00;101191.84;5035421;28;45285;-68
2023/05/16 03:11:00;;;;;;;;;4.50;4.50;;;;;7.92;100.00;101205.78;5035204;28;45347;-66
2023/05/16 03:13:27;;;;;;;;;5.50;5.00;;;;;7.89;100.00;101197.09;5034945;28;45632;-67
2023/05/16 03:15:52;;;;;;;;;4.00;4.00;;;;;7.85;100.00;101194.56;5034930;28;45861;-66
2023/05/16 03:18:18;;;;;;;;;3.75;3.75;;;;;7.78;100.00;101192.97;5034705;28;45359;-62
2023/05/16 03:20:43;;;;;;;;;5.00;5.00;;;;;7.84;100.00;101205.94;5033626;28;45360;-62
2023/05/16 03:23:09;;;;;;;;;5.00;5.00;;;;;7.83;100.00;101207.69;5035125;28;45351;-64
2023/05/16 03:25:35;;;;;;;;;3.25;3.25;;;;;7.82;100.00;101208.59;5034877;28;47144;-64
2023/05/16 03:28:09;;;;;;;;;4.00;4.00;;;;;7.78;100.00;101206.91;5035172;28;45162;-63
2023/05/16 03:30:35;;;;;;;;;5.75;4.75;;;;;7.80;100.00;101204.28;5035109;28;45274;-63
2023/05/16 03:33:00;;;;;;;;;4.00;4.00;;;;;7.80;100.00;101217.38;5034907;28;45664;-65
2023/05/16 03:35:27;;;;;;;;;3.75;3.75;;;;;7.74;100.00;101208.75;5033803;28;45994;-64
2023/05/16 03:37:52;;;;;;;;;6.00;4.25;;;;;7.78;100.00;101211.31;5034396;28;45228;-64
2023/05/16 03:40:18;;;;;;;;;4.50;4.50;;;;;7.78;100.00;101211.31;5033441;28;45298;-68
2023/05/16 03:42:43;;;;;;;;;5.00;5.00;;;;;7.80;100.00;101222.63;5034983;28;45337;-65
2023/05/16 03:45:08;;;;;;;;;2.50;2.50;;;;;7.84;100.00;101234.75;5033216;28;46942;-67
2023/05/16 03:47:34;;;;;;;;;5.25;5.25;;;;;7.80;100.00;101230.47;5034661;28;45183;-70
2023/05/16 03:49:59;;;;;;;;;1.00;1.00;;;;;7.77;100.00;101239.22;5034454;28;45465;-64
2023/05/16 03:52:25;;;;;;;;;6.25;4.50;;;;;7.77;100.00;101241.84;5034631;28;45549;-68
2023/05/16 03:54:50;;;;;;;;;3.00;3.00;;;;;7.77;100.00;101235.75;5034178;28;45542;-69
2023/05/16 03:57:15;;;;;;;;;4.00;4.00;;;;;7.70;100.00;101228.03;5033998;28;50015;-72
2023/05/16 03:59:41;;;;;;;;;4.00;3.00;;;;;7.77;100.00;101246.25;5034455;28;45355;-71
2023/05/16 04:02:07;;;;;;;;;2.75;2.75;;;;;7.74;100.00;101237.53;5035004;28;45656;-70
2023/05/16 04:04:32;;;;;;;;;3.50;3.50;;;;;7.73;100.00;101248.03;5034010;28;45550;-68
2023/05/16 04:06:58;;;;;;;;;3.00;3.00;;;;;7.67;100.00;101245.53;5034176;28;45275;-70
2023/05/16 04:09:23;;;;;;;;;3.00;3.00;;;;;7.64;100.00;101243.84;5033006;28;45408;-73
2023/05/16 04:11:48;;;;;;;;;3.75;3.75;;;;;7.69;100.00;101244.63;5016747;28;45534;-72
2023/05/16 04:14:14;;;;;;;;;5.50;5.50;;;;;7.68;100.00;101253.38;5032888;28;46007;-71
2023/05/16 04:16:40;;;;;;;;;4.50;4.50;;;;;7.66;100.00;101247.28;5034401;28;45334;-65
2023/05/16 04:19:06;;;;;;;;;4.75;4.25;;;;;7.65;100.00;101255.16;5034231;28;45334;-70
2023/05/16 04:21:31;;;;;;;;;5.50;5.50;;;;;7.66;100.00;101263.00;5032769;28;45342;-67
2023/05/16 04:23:56;;;;;;;;;4.25;4.25;;;;;7.67;100.00;101259.50;5033738;28;45521;-64
2023/05/16 04:26:22;;;;;;;;;5.00;5.00;;;;;7.73;100.00;101259.38;5033867;28;45343;-63
2023/05/16 04:28:47;;;;;;;;;4.75;4.75;;;;;7.72;100.00;101254.16;5034074;28;45246;-64
2023/05/16 04:31:13;;;;;;;;;3.50;3.50;;;;;7.73;100.00;101259.38;5034397;28;45441;-69
2023/05/16 04:33:38;;;;;;;;;5.50;5.00;;;;;7.65;100.00;101252.53;5034438;28;45292;-68
2023/05/16 04:36:04;;;;;;;;;4.75;4.75;;;;;7.70;100.00;101261.19;5034170;28;45326;-64
2023/05/16 04:38:30;;;;;;;;;3.75;3.75;;;;;7.68;100.00;101266.47;5034309;28;45336;-66
2023/05/16 04:40:56;;;;;;;;;5.25;5.25;;;;;7.62;100.00;101258.72;5032678;28;45578;-69
2023/05/16 04:43:21;;;;;;;;;5.00;5.00;;;;;7.70;100.00;101262.06;5033222;28;46149;-68
2023/05/16 04:45:47;;;;;;;;;5.00;5.00;;;;;7.70;100.00;101264.69;5033569;28;45462;-65
2023/05/16 04:48:14;;;;;;;;;3.75;3.75;;;;;7.74;100.00;101268.97;5035143;28;45306;-63
2023/05/16 04:50:39;;;;;;;;;5.00;5.00;;;;;7.73;100.00;101275.09;5037705;28;45533;-66
2023/05/16 04:53:05;;;;;;;;;5.00;4.00;;;;;7.77;100.00;101272.44;5036657;28;46068;-68
2023/05/16 04:55:30;;;;;;;;;6.00;5.75;;;;;7.79;100.00;101278.50;5035316;28;45339;-68
2023/05/16 04:57:56;;;;;;;;;4.00;4.00;;;;;7.83;100.00;101281.03;5036780;28;45201;-61
2023/05/16 05:00:21;;;;;;;;;4.75;4.75;;;;;7.86;100.00;101285.38;5036837;28;45529;-63
2023/05/16 05:02:47;;;;;;;;;4.25;4.25;;;;;7.89;100.00;101290.56;5036557;28;45352;-65
2023/05/16 05:05:12;;;;;;;;;4.25;4.25;;;;;7.90;100.00;101279.19;5035426;28;46090;-63
2023/05/16 05:07:37;;;;;;;;;4.75;4.75;;;;;7.93;100.00;101292.22;5036846;28;45310;-63
2023/05/16 05:10:04;;;;;;;;;4.25;4.25;;;;;8.04;100.00;101300.75;5036868;28;45510;-69
2023/05/16 05:12:29;;;;;;;;;5.00;5.00;;;;;8.15;100.00;101297.06;5036566;28;47231;-63
2023/05/16 05:14:55;;;;;;;;;6.00;6.00;;;;;8.22;100.00;101295.22;5035158;28;45469;-70
2023/05/16 05:17:22;;;;;;;;;5.00;5.00;;;;;8.41;100.00;101299.19;5036632;28;45391;-63
2023/05/16 05:19:47;;;;;;;;;5.50;4.00;;;;;8.37;100.00;101267.81;5036904;28;45541;-64
2023/05/16 05:22:13;;;;;;;;;6.00;6.00;;;;;8.55;100.00;101293.72;5036745;28;47022;-64
2023/05/16 05:24:39;;;;;;;;;4.00;4.00;;;;;8.69;99.49;101293.44;5036554;28;45375;-63
2023/05/16 05:27:05;;;;;;;;;4.50;4.50;;;;;8.78;98.70;101300.25;5036521;28;45367;-66
2023/05/16 05:29:30;;;;;;;;;4.50;4.50;;;;;8.81;97.02;101300.19;5036918;28;45253;-62
2023/05/16 05:31:55;;;;;;;;;4.00;4.00;;;;;8.84;97.19;101294.88;5034681;28;47245;-68
2023/05/16 05:34:21;;;;;;;;;4.25;4.25;;;;;8.91;96.29;101308.69;5036352;28;45241;-63
2023/05/16 05:36:46;;;;;;;;;5.25;5.25;;;;;8.91;95.78;101303.47;5036225;28;45344;-71
2023/05/16 05:39:11;;;;;;;;;5.75;5.75;;;;;8.98;95.86;101309.44;5036664;28;45590;-65
2023/05/16 05:41:38;;;;;;;;;5.00;5.00;;;;;9.01;95.98;101301.50;5035791;28;48212;-68
2023/05/16 05:44:04;;;;;;;;;4.00;4.00;;;;;9.08;95.00;101312.75;5034857;28;45331;-67
2023/05/16 05:46:30;;;;;;;;;5.00;5.00;;;;;9.03;93.87;101300.59;5036201;28;45364;-68
2023/05/16 05:48:56;;;;;;;;;4.50;4.50;;;;;9.08;94.78;101307.50;5035893;28;45279;-69
2023/05/16 05:51:21;;;;;;;;;4.75;4.75;;;;;9.11;94.12;101312.69;5035870;28;46196;-62
2023/05/16 05:53:46;;;;;;;;;4.00;4.00;;;;;9.09;93.06;101317.94;5034367;28;45544;-67
2023/05/16 05:56:12;;;;;;;;;3.00;3.00;;;;;9.05;92.58;101316.28;5036177;28;45527;-69
2023/05/16 05:58:40;;;;;;;;;4.50;4.50;;;;;9.10;93.63;101319.69;5034301;28;45395;-62
2023/05/16 06:01:05;;;;;;;;;4.50;4.00;;;;;9.15;94.59;101325.69;5034897;28;46699;-66
2023/05/16 06:03:31;;;;;;;;;5.75;5.75;;;;;9.17;93.25;101316.00;5033873;28;45315;-71
2023/05/16 06:05:56;;;;;;;;;3.00;3.00;;;;;9.27;93.14;101315.81;5035725;28;45359;-71
2023/05/16 06:08:21;;;;;;;;;4.00;4.00;;;;;9.30;92.67;101331.47;5035815;28;45340;-68
2023/05/16 06:10:47;;;;;;;;;3.50;3.00;;;;;9.35;90.92;101332.25;5036042;28;46383;-71
2023/05/16 06:13:12;;;;;;;;;5.75;5.00;;;;;9.30;90.59;101313.97;5030677;28;45554;-67
2023/05/16 06:15:37;;;;;;;;;3.00;3.00;;;;;9.35;88.37;101334.88;5031239;28;45451;-67
2023/05/16 06:18:03;;;;;;;;;6.50;5.75;;;;;9.29;89.03;101322.75;5035687;28;45669;-73
2023/05/16 06:20:28;;;;;;;;;3.50;3.50;;;;;9.39;89.09;101333.91;5034242;28;45354;-69
2023/05/16 06:22:54;;;;;;;;;3.00;3.00;;;;;9.40;87.57;101335.63;5035015;28;45177;-73
2023/05/16 06:25:20;;;;;;;;;5.00;5.00;;;;;9.42;88.60;101325.94;5034945;28;45454;-78
2023/05/16 06:27:45;;;;;;;;;3.75;3.75;;;;;9.38;87.87;101326.91;5036011;28;45310;-79
2023/05/16 06:30:11;;;;;;;;;2.75;2.75;;;;;9.39;87.25;101320.75;5026560;28;45497;-74
2023/05/16 06:32:36;;;;;;;;;6.00;6.00;;;;;9.39;87.85;101325.16;5034345;28;45416;-69
2023/05/16 06:35:01;;;;;;;;;5.00;5.00;;;;;9.47;88.29;101325.84;5034934;28;45410;-67
2023/05/16 06:37:27;;;;;;;;;4.75;4.75;;;;;9.48;87.17;101315.28;5033161;28;45688;-63
2023/05/16 06:39:52;;;;;;;;;4.00;4.00;;;;;9.57;86.53;101345.75;5035181;28;45687;-66
2023/05/16 06:42:19;;;;;;;;;6.50;4.50;;;;;9.50;86.22;101334.50;5032961;28;45520;-64
2023/05/16 06:44:44;;;;;;;;;2.00;2.00;;;;;9.56;87.16;101341.38;5034167;28;45299;-65
2023/05/16 06:47:10;;;;;;;;;4.00;4.00;;;;;9.67;87.26;101342.91;5033940;28;45888;-67
2023/05/16 06:49:35;;;;;;;;;4.00;4.00;;;;;9.71;86.87;101345.44;5032815;28;46118;-63
2023/05/16 06:52:01;;;;;;;;;3.50;3.50;;;;;9.74;85.83;101349.72;5034611;28;45298;-66
2023/05/16 06:54:26;;;;;;;;;4.50;4.50;;;;;9.73;85.69;101351.50;5034765;28;45360;-64
2023/05/16 06:56:52;;;;;;;;;4.00;4.00;;;;;9.79;85.86;101353.09;5035141;28;45269;-65
2023/05/16 06:59:17;;;;;;;;;3.25;3.25;;;;;9.84;84.84;101345.13;5033983;28;63188;-64
2023/05/16 07:01:43;;;;;;;;;3.50;3.50;;;;;9.86;84.70;101345.94;5034114;28;45343;-62
2023/05/16 07:04:08;;;;;;;;;3.25;3.25;;;;;9.91;85.46;101347.53;5033412;28;45454;-66
2023/05/16 07:06:35;;;;;;;;;4.00;4.00;;;;;9.98;84.40;101342.13;5033693;28;45445;-65
2023/05/16 07:09:01;;;;;;;;;3.25;3.25;;;;;10.02;83.68;101354.28;5034789;28;46225;-65
2023/05/16 07:11:26;;;;;;;;;4.00;4.00;;;;;10.05;83.66;101355.09;5032895;28;45553;-64
2023/05/16 07:13:52;;;;;;;;;3.00;3.00;;;;;10.02;83.78;101336.78;5035020;28;45354;-64
2023/05/16 07:16:17;;;;;;;;;3.75;3.75;;;;;10.18;84.17;101352.13;5034171;28;45401;-66
2023/05/16 07:18:42;;;;;;;;;3.00;2.75;;;;;10.27;83.58;101359.78;5034897;28;45420;-66
2023/05/16 07:21:07;;;;;;;;;4.50;4.50;;;;;10.37;83.58;101357.78;5034880;28;45451;-66
2023/05/16 07:23:33;;;;;;;;;3.50;3.50;;;;;10.43;81.52;101356.78;5034586;28;48319;-67
2023/05/16 07:25:58;;;;;;;;;3.00;3.00;;;;;10.54;82.36;101357.34;5035200;28;45356;-67
2023/05/16 07:28:23;;;;;;;;;1.00;1.00;;;;;10.58;81.87;101366.88;5034831;28;45458;-70
2023/05/16 07:30:49;;;;;;;;;3.25;3.25;;;;;10.64;81.16;101368.47;5034502;28;45364;-70
2023/05/16 07:33:14;;;;;;;;;2.00;2.00;;;;;10.66;79.71;101364.91;5034461;28;45296;-69
2023/05/16 07:35:40;;;;;;;;;4.00;4.00;;;;;10.73;80.28;101377.91;5034640;28;45521;-73
2023/05/16 07:38:05;;;;;;;;;1.25;1.25;;;;;10.79;78.37;101383.00;5034327;28;46073;-72
2023/05/16 07:40:31;;;;;;;;;3.00;2.50;;;;;10.77;78.04;101372.50;5033892;28;65602;-71
2023/05/16 07:42:56;;;;;;;;;3.00;3.00;;;;;10.80;78.68;101377.66;5034524;28;45228;-67
2023/05/16 07:45:21;;;;;;;;;2.25;2.00;;;;;10.85;76.98;101372.28;5034967;28;45556;-65
2023/05/16 07:47:47;;;;;;;;;3.00;3.00;;;;;10.94;77.33;101369.38;5034202;28;46083;-66
2023/05/16 07:50:12;;;;;;;;;3.25;3.25;;;;;10.96;76.15;101371.97;5034256;28;45426;-65
2023/05/16 07:52:38;;;;;;;;;2.00;2.00;;;;;11.03;76.59;101368.25;5034645;28;46063;-65
2023/05/16 07:55:04;;;;;;;;;3.00;3.00;;;;;11.11;77.13;101373.28;5034692;28;45691;-64
2023/05/16 07:57:29;;;;;;;;;3.75;3.75;;;;;11.25;77.15;101365.00;5033977;28;45386;-65
2023/05/16 07:59:54;;;;;;;;;3.75;3.75;;;;;11.38;76.19;101368.09;5034031;28;45552;-64
2023/05/16 08:02:24;;;;;;;;;1.00;1.00;;;;;11.53;75.53;101356.22;5035024;28;45434;-63
2023/05/16 08:04:49;;;;;;;;;3.00;3.00;;;;;11.69;75.30;101361.88;5035343;28;45497;-63
2023/05/16 08:07:15;;;;;;;;;3.00;3.00;;;;;11.84;73.66;101369.28;5034500;28;45972;-65
2023/05/16 08:09:40;;;;;;;;;2.25;2.25;;;;;11.92;74.02;101362.88;5032866;28;45321;-68
2023/05/16 08:12:06;;;;;;;;;3.25;3.25;;;;;11.99;71.71;101367.03;5034459;28;45243;-68
2023/05/16 08:14:32;;;;;;;;;4.50;3.00;;;;;11.95;69.72;101378.59;5034729;28;45664;-66
2023/05/16 08:17:00;;;;;;;;;2.00;2.00;;;;;12.01;69.45;101367.00;5034227;28;46020;-69
2023/05/16 08:19:26;;;;;;;;;2.00;2.00;;;;;12.01;68.61;101354.69;5034266;28;45341;-64
2023/05/16 08:21:51;;;;;;;;;4.75;3.00;;;;;12.06;70.26;101370.34;5034703;28;45413;-63
2023/05/16 08:24:17;;;;;;;;;2.00;2.00;;;;;12.07;68.93;101374.72;5037626;28;45508;-65
2023/05/16 08:26:42;;;;;;;;;2.00;2.00;;;;;12.07;68.58;101362.41;5037631;28;46000;-69
2023/05/16 08:29:07;;;;;;;;;0.25;0.25;;;;;12.18;68.33;101371.72;5037162;28;56828;-67
2023/05/16 08:31:33;;;;;;;;;2.25;2.25;;;;;12.29;68.21;101372.22;5037856;28;45437;-66
2023/05/16 08:34:00;;;;;;;;;3.50;3.50;;;;;12.39;68.25;101370.13;5036344;28;45579;-66
2023/05/16 08:36:26;;;;;;;;;2.00;2.00;;;;;12.42;67.47;101370.03;5037332;28;47441;-66
2023/05/16 08:38:51;;;;;;;;;1.00;1.00;;;;;12.46;65.47;101373.41;5037332;28;45260;-63
2023/05/16 08:41:16;;;;;;;;;3.25;3.25;;;;;12.57;67.52;101368.59;5036979;28;45240;-65
2023/05/16 08:43:42;;;;;;;;;2.75;2.75;;;;;12.74;64.60;101369.78;5036359;28;45366;-65
2023/05/16 08:46:07;;;;;;;;;2.00;2.00;;;;;12.81;64.05;101373.91;5037432;28;45226;-63
2023/05/16 08:48:33;;;;;;;;;1.50;1.50;;;;;12.94;65.01;101371.66;5035680;28;45407;-65
2023/05/16 08:51:05;;;;;;;;;2.00;2.00;;;;;13.05;64.23;101376.56;5037704;28;45260;-65
2023/05/16 08:53:39;;;;;;;;;2.00;2.00;;;;;13.08;62.81;101372.00;5037528;28;45619;-64
2023/05/16 08:56:07;;;;;;;;;1.00;1.00;;;;;13.09;61.04;101370.22;5037323;28;45410;-64
2023/05/16 08:58:33;;;;;;;;;1.50;1.50;;;;;13.14;60.89;101370.91;5037260;28;45546;-69
2023/05/16 09:00:58;;;;;;;;;1.00;1.00;;;;;13.29;61.54;101377.41;5037630;28;45162;-65
2023/05/16 09:03:24;;;;;;;;;6.00;6.00;;;;;13.43;62.56;101379.53;5037932;28;45240;-65
2023/05/16 09:05:49;;;;;;;;;1.25;1.25;;;;;13.63;61.30;101384.03;5035279;28;48133;-70
2023/05/16 09:08:15;;;;;;;;;2.00;2.00;;;;;13.75;62.10;101380.00;5036994;28;45478;-63
2023/05/16 09:10:40;;;;;;;;;2.50;2.50;;;;;13.89;61.04;101371.50;5037103;28;45374;-66
2023/05/16 09:13:06;;;;;;;;;2.75;2.50;;;;;13.92;59.02;101376.69;5036903;28;45358;-69
2023/05/16 09:15:32;;;;;;;;;3.00;3.00;;;;;13.86;58.78;101372.53;5036443;28;46295;-70
2023/05/16 09:18:00;;;;;;;;;0.00;0.00;;;;;13.85;59.07;101378.72;5036864;28;45350;-64
2023/05/16 09:20:26;;;;;;;;;2.50;2.50;;;;;13.82;59.41;101381.50;5036615;28;45372;-68
2023/05/16 09:22:57;;;;;;;;;2.00;2.00;;;;;13.88;58.76;101385.66;5036620;28;45478;-69
2023/05/16 09:25:25;;;;;;;;;2.25;2.25;;;;;13.86;59.13;101387.50;5036128;28;46455;-65
2023/05/16 09:27:54;;;;;;;;;2.00;2.00;;;;;13.77;59.16;101382.59;5036088;28;45310;-69
2023/05/16 09:30:23;;;;;;;;;1.50;1.50;;;;;13.71;56.44;101387.22;5036342;28;45424;-67
2023/05/16 09:32:52;;;;;;;;;1.00;1.00;;;;;13.65;56.13;101374.25;5036884;28;46095;-71
2023/05/16 09:35:21;;;;;;;;;7.25;7.25;;;;;13.65;57.77;101390.13;5036376;28;45378;-71
2023/05/16 09:37:49;;;;;;;;;1.50;1.50;;;;;13.66;57.97;101381.25;5034667;28;45369;-65
2023/05/16 09:40:15;;;;;;;;;1.00;1.00;;;;;13.56;56.92;101378.09;5036313;28;45510;-64
2023/05/16 09:42:43;;;;;;;;;2.00;2.00;;;;;13.61;57.44;101377.94;5036300;28;45322;-67
2023/05/16 09:45:16;;;;;;;;;2.25;2.25;;;;;13.54;56.21;101385.25;5036560;28;46160;-73
2023/05/16 09:47:46;;;;;;;;;1.50;1.50;;;;;13.58;54.63;101386.00;5036048;28;45389;-65
2023/05/16 09:50:15;;;;;;;;;1.00;1.00;;;;;13.62;53.98;101376.13;5035903;28;45427;-67
2023/05/16 09:52:41;;;;;;;;;4.50;4.50;;;;;13.59;55.87;101348.91;5034441;28;45239;-67
2023/05/16 09:55:08;;;;;;;;;3.25;3.25;;;;;13.93;56.12;101388.13;5035712;28;45928;-64
2023/05/16 09:57:37;;;;;;;;;2.00;2.00;;;;;14.00;54.98;101381.66;5035625;28;45354;-68
2023/05/16 10:00:07;;;;;;;;;2.50;2.50;;;;;13.87;54.37;101334.56;5036201;28;45497;-68
2023/05/16 10:02:33;;;;;;;;;2.75;2.75;;;;;14.15;53.98;101370.44;5034685;28;45492;-69
2023/05/16 10:04:59;;;;;;;;;4.75;4.75;;;;;14.23;54.72;101374.53;5036043;28;45985;-70
2023/05/16 10:07:25;;;;;;;;;3.00;3.00;;;;;14.34;55.34;101369.63;5034242;28;45554;-68
2023/05/16 10:09:52;;;;;;;;;3.00;3.00;;;;;14.31;55.15;101365.34;5036135;28;45423;-74
2023/05/16 10:12:22;;;;;;;;;4.00;4.00;;;;;14.44;55.82;101378.88;5036393;28;45368;-68
2023/05/16 10:14:49;;;;;;;;;1.50;1.50;;;;;14.52;55.37;101369.75;5036674;28;45279;-72
2023/05/16 10:17:15;;;;;;;;;2.50;2.50;;;;;14.46;54.40;101374.38;5036337;28;45432;-72
2023/05/16 10:19:41;;;;;;;;;1.50;1.50;;;;;14.38;54.12;101373.88;5035817;28;45437;-70
2023/05/16 10:22:10;;;;;;;;;1.00;1.00;;;;;14.35;54.54;101374.00;5035855;28;45521;-69
2023/05/16 10:24:47;;;;;;;;;2.00;2.00;;;;;14.34;54.32;101355.56;5034292;28;46472;-72
2023/05/16 10:27:14;;;;;;;;;2.00;2.00;;;;;14.29;53.12;101383.03;5035788;28;45421;-66
2023/05/16 10:29:41;;;;;;;;;7.50;7.50;;;;;14.23;54.32;101363.94;5017485;28;45491;-69
2023/05/16 10:32:08;;;;;;;;;2.25;2.25;;;;;14.31;53.48;101369.75;5035869;28;45390;-66
2023/05/16 10:34:34;;;;;;;;;4.75;4.75;;;;;14.36;53.66;101361.63;5035487;28;46323;-66
2023/05/16 10:37:00;;;;;;;;;9.25;8.25;;;;;14.49;53.72;101359.28;5033985;28;45383;-67
2023/05/16 10:39:27;;;;;;;;;3.00;3.00;;;;;14.64;54.58;101376.31;5035102;28;45190;-66
2023/05/16 10:41:52;;;;;;;;;2.00;2.00;;;;;14.68;53.98;101368.13;5035626;28;46069;-67
2023/05/16 10:44:18;;;;;;;;;1.75;1.75;;;;;14.81;54.49;101365.84;5034932;28;45342;-68
2023/05/16 10:46:46;;;;;;;;;1.00;1.00;;;;;14.90;54.12;101365.41;5032482;28;45287;-64
2023/05/16 10:49:25;;;;;;;;;2.00;2.00;;;;;15.01;54.26;101366.69;5035040;28;45382;-64
2023/05/16 10:52:06;;;;;;;;;1.00;1.00;;;;;15.13;54.07;101373.22;5035272;28;45460;-69
2023/05/16 10:54:36;;;;;;;;;5.75;5.75;;;;;15.12;52.95;101374.16;5035221;28;46281;-66
2023/05/16 10:57:08;;;;;;;;;1.25;1.25;;;;;15.08;53.77;101369.94;5035267;28;45264;-68
2023/05/16 10:59:41;;;;;;;;;2.00;2.00;;;;;15.00;53.19;101376.47;5033290;28;45368;-69
2023/05/16 11:02:20;;;;;;;;;3.00;2.00;;;;;15.01;54.12;101372.88;5035277;28;45281;-66
2023/05/16 11:04:52;;;;;;;;;3.25;3.25;;;;;15.05;53.60;101365.63;5033683;28;48498;-70
2023/05/16 11:07:20;;;;;;;;;14.25;14.25;;;;;14.99;50.41;101356.19;5034393;28;45507;-64
2023/05/16 11:09:52;;;;;;;;;1.75;1.75;;;;;15.06;51.25;101343.50;5034706;28;45245;-71
2023/05/16 11:12:19;;;;;;;;;3.00;3.00;;;;;15.23;51.03;101363.03;5034663;28;45415;-68
2023/05/16 11:14:50;;;;;;;;;2.75;2.75;;;;;15.36;52.07;101364.19;5034071;28;46415;-65
2023/05/16 11:17:23;;;;;;;;;3.00;3.00;;;;;15.48;52.02;101365.38;5034692;28;45355;-69
2023/05/16 11:19:58;;;;;;;;;3.50;3.50;;;;;15.55;50.69;101365.97;5035073;28;45318;-69
2023/05/16 11:22:41;;;;;;;;;4.00;4.00;;;;;15.60;51.59;101356.00;5035422;28;45249;-68
2023/05/16 11:25:08;;;;;;;;;4.25;4.25;;;;;15.67;51.45;101353.88;5034645;28;47197;-65
2023/05/16 11:27:43;;;;;;;;;4.50;4.50;;;;;15.86;47.98;101354.69;5035438;28;45252;-66